createdAt,value
2022-10-17T00:02:11.407Z,4.30
2022-10-17T00:04:13.458Z,4.10
2022-10-17T00:06:16.147Z,4.80
2022-10-17T00:08:19.529Z,4.85
2022-10-17T00:10:23.103Z,4.13
2022-10-17T00:12:25.239Z,3.97
2022-10-17T00:14:27.371Z,3.97
2022-10-17T00:16:33.710Z,4.47
2022-10-17T00:18:35.733Z,4.38
2022-10-17T00:20:38.016Z,4.20
2022-10-17T00:22:40.159Z,4.47
2022-10-17T00:24:42.288Z,4.15
2022-10-17T00:26:44.342Z,4.18
2022-10-17T00:28:48.261Z,4.43
2022-10-17T00:31:05.615Z,3.90
2022-10-17T00:33:08.039Z,4.35
2022-10-17T00:35:10.805Z,3.72
2022-10-17T00:37:13.041Z,3.85
2022-10-17T00:39:16.016Z,3.97
2022-10-17T00:41:20.019Z,4.57
2022-10-17T00:43:22.187Z,4.65
2022-10-17T00:45:27.884Z,3.95
2022-10-17T00:47:31.021Z,4.15
2022-10-17T00:49:36.128Z,4.70
2022-10-17T00:51:45.408Z,4.15
2022-10-17T00:53:47.578Z,4.00
2022-10-17T00:55:52.893Z,4.97
2022-10-17T00:57:56.625Z,4.60
2022-10-17T01:00:00.901Z,4.40
2022-10-17T01:02:11.705Z,4.00
2022-10-17T01:04:13.744Z,3.88
2022-10-17T01:06:16.036Z,4.10
2022-10-17T01:08:18.375Z,4.10
2022-10-17T01:12:35.454Z,4.88
2022-10-17T01:15:03.026Z,5.00
2022-10-17T01:17:15.192Z,4.85
2022-10-17T01:19:35.953Z,4.32
2022-10-17T01:22:01.586Z,4.00
2022-10-17T01:24:37.319Z,4.55
2022-10-17T01:27:01.088Z,4.32
2022-10-17T01:29:33.424Z,6.22
2022-10-17T01:31:47.924Z,4.40
2022-10-17T01:33:59.126Z,4.70
2022-10-17T01:36:13.000Z,4.40
2022-10-17T01:38:24.048Z,4.22
2022-10-17T01:40:30.308Z,4.75
2022-10-17T01:42:42.741Z,4.35
2022-10-17T01:44:56.202Z,4.28
2022-10-17T01:47:05.670Z,3.75
2022-10-17T01:49:10.653Z,3.80
2022-10-17T01:51:22.525Z,4.93
2022-10-17T01:53:30.370Z,3.83
2022-10-17T01:55:36.479Z,4.10
2022-10-17T01:57:44.043Z,3.40
2022-10-17T01:59:49.891Z,4.10
2022-10-17T02:01:55.693Z,4.13
2022-10-17T02:04:00.312Z,3.92
2022-10-17T02:06:03.513Z,3.63
2022-10-17T02:08:07.263Z,4.00
2022-10-17T02:10:32.372Z,4.22
2022-10-17T02:12:54.248Z,3.92
2022-10-17T02:15:15.234Z,4.35
2022-10-17T02:17:38.435Z,3.55
2022-10-17T02:19:46.347Z,4.40
2022-10-17T02:21:57.615Z,4.13
2022-10-17T02:24:15.542Z,4.32
2022-10-17T02:26:25.039Z,4.63
2022-10-17T02:28:47.402Z,4.03
2022-10-17T02:31:13.877Z,3.85
2022-10-17T02:33:59.907Z,4.85
2022-10-17T02:36:10.256Z,4.10
2022-10-17T02:38:13.531Z,3.75
2022-10-17T02:40:21.211Z,4.10
2022-10-17T02:42:26.341Z,4.15
2022-10-17T02:44:30.848Z,4.32
2022-10-17T02:46:34.643Z,4.55
2022-10-17T02:48:42.637Z,3.90
2022-10-17T02:51:12.945Z,3.90
2022-10-17T02:53:25.369Z,4.35
2022-10-17T02:55:33.550Z,4.70
2022-10-17T02:57:47.614Z,3.88
2022-10-17T02:59:51.264Z,4.40
2022-10-17T03:01:53.819Z,3.97
2022-10-17T03:04:10.112Z,4.35
2022-10-17T03:06:12.206Z,4.20
2022-10-17T03:08:14.515Z,4.43
2022-10-17T03:12:18.709Z,4.33
2022-10-17T03:14:21.235Z,4.47
2022-10-17T03:16:23.235Z,4.07
2022-10-17T03:18:25.482Z,4.78
2022-10-17T03:20:32.940Z,4.15
2022-10-17T03:22:35.062Z,5.18
2022-10-17T03:24:39.059Z,4.70
2022-10-17T03:26:41.106Z,4.97
2022-10-17T03:28:43.282Z,4.53
2022-10-17T03:32:47.624Z,4.40
2022-10-17T03:34:49.791Z,4.43
2022-10-17T03:36:52.586Z,6.07
2022-10-17T03:40:58.495Z,4.25
2022-10-17T03:43:01.410Z,4.32
2022-10-17T03:45:05.297Z,3.90
2022-10-17T03:47:09.327Z,4.38
2022-10-17T03:49:14.783Z,4.32
2022-10-17T03:51:17.564Z,4.78
2022-10-17T03:53:24.987Z,4.80
2022-10-17T03:55:27.133Z,6.22
2022-10-17T03:57:29.327Z,5.65
2022-10-17T04:01:39.034Z,5.85
2022-10-17T04:03:43.526Z,4.97
2022-10-17T04:05:45.637Z,4.35
2022-10-17T04:07:47.901Z,5.45
2022-10-17T04:09:51.984Z,4.53
2022-10-17T04:11:55.884Z,4.22
2022-10-17T04:14:02.280Z,5.20
2022-10-17T04:16:09.015Z,4.85
2022-10-17T04:18:15.774Z,4.70
2022-10-17T04:20:17.892Z,5.03
2022-10-17T04:22:20.024Z,4.50
2022-10-17T04:26:40.619Z,4.95
2022-10-17T04:28:42.844Z,4.68
2022-10-17T04:30:45.620Z,4.65
2022-10-17T04:32:51.595Z,6.22
2022-10-17T04:34:56.549Z,5.00
2022-10-17T04:36:59.111Z,5.30
2022-10-17T04:39:03.730Z,4.43
2022-10-17T04:41:10.474Z,4.60
2022-10-17T04:43:12.602Z,5.60
2022-10-17T04:45:14.895Z,4.40
2022-10-17T04:47:17.653Z,4.88
2022-10-17T04:49:19.923Z,4.53
2022-10-17T04:51:26.613Z,4.82
2022-10-17T04:53:58.406Z,5.18
2022-10-17T04:56:01.373Z,4.80
2022-10-17T04:58:04.248Z,4.30
2022-10-17T05:02:36.771Z,3.65
2022-10-17T05:04:39.412Z,4.65
2022-10-17T05:06:42.364Z,4.57
2022-10-17T05:09:12.032Z,4.82
2022-10-17T05:11:32.596Z,3.95
2022-10-17T05:13:34.656Z,5.05
2022-10-17T05:15:37.630Z,4.68
2022-10-17T05:17:39.657Z,5.18
2022-10-17T05:19:42.320Z,4.72
2022-10-17T05:21:44.787Z,4.35
2022-10-17T05:23:47.014Z,4.57
2022-10-17T05:25:54.986Z,4.05
2022-10-17T05:27:59.226Z,4.32
2022-10-17T05:30:01.878Z,4.35
2022-10-17T05:32:08.517Z,4.60
2022-10-17T05:36:16.521Z,4.55
2022-10-17T05:38:18.949Z,4.72
2022-10-17T05:40:22.608Z,4.72
2022-10-17T05:42:27.847Z,5.03
2022-10-17T05:44:31.379Z,4.50
2022-10-17T05:46:35.353Z,4.88
2022-10-17T05:48:37.455Z,4.63
2022-10-17T05:50:40.120Z,3.97
2022-10-17T05:52:47.351Z,5.07
2022-10-17T05:54:51.444Z,3.60
2022-10-17T05:56:55.403Z,4.20
2022-10-17T05:59:01.618Z,4.00
2022-10-17T06:01:33.102Z,4.00
2022-10-17T06:03:35.433Z,4.15
2022-10-17T06:05:40.491Z,5.22
2022-10-17T06:07:42.725Z,4.82
2022-10-17T06:13:50.501Z,3.83
2022-10-17T06:15:58.136Z,4.00
2022-10-17T06:18:00.299Z,3.83
2022-10-17T06:20:02.584Z,4.13
2022-10-17T06:22:05.031Z,4.78
2022-10-17T06:24:09.737Z,4.03
2022-10-17T06:26:14.907Z,4.28
2022-10-17T06:30:19.617Z,3.97
2022-10-17T06:34:23.801Z,4.20
2022-10-17T06:36:26.019Z,4.80
2022-10-17T06:38:28.344Z,4.25
2022-10-17T06:40:32.777Z,4.38
2022-10-17T06:45:00.282Z,4.57
2022-10-17T06:47:19.237Z,4.10
2022-10-17T06:49:23.176Z,4.72
2022-10-17T06:53:32.345Z,3.88
2022-10-17T06:56:03.253Z,4.15
2022-10-17T06:58:16.885Z,4.57
2022-10-17T07:00:39.256Z,4.28
2022-10-17T07:04:47.287Z,3.95
2022-10-17T07:06:49.816Z,4.53
2022-10-17T07:08:59.048Z,3.90
2022-10-17T07:11:12.119Z,4.10
2022-10-17T07:13:19.351Z,4.00
2022-10-17T07:16:11.467Z,4.30
2022-10-17T07:18:26.441Z,4.50
2022-10-17T07:20:29.050Z,4.72
2022-10-17T07:22:31.734Z,4.95
2022-10-17T07:24:34.444Z,4.95
2022-10-17T07:27:00.641Z,4.30
2022-10-17T07:31:20.212Z,4.43
2022-10-17T07:33:22.492Z,3.70
2022-10-17T07:35:25.442Z,5.05
2022-10-17T07:37:29.566Z,4.18
2022-10-17T07:39:32.306Z,5.43
2022-10-17T07:43:37.193Z,4.45
2022-10-17T07:45:44.747Z,5.63
2022-10-17T07:47:47.352Z,3.90
2022-10-17T07:49:58.473Z,4.75
2022-10-17T07:52:00.572Z,4.00
2022-10-17T07:54:04.847Z,3.45
2022-10-17T07:56:09.323Z,4.10
2022-10-17T07:58:15.527Z,4.43
2022-10-17T08:00:23.259Z,3.88
2022-10-17T08:02:28.157Z,5.00
2022-10-17T08:04:31.336Z,4.40
2022-10-17T08:06:36.493Z,3.65
2022-10-17T08:10:47.195Z,5.07
2022-10-17T08:12:51.806Z,4.68
2022-10-17T08:14:54.517Z,4.20
2022-10-17T08:16:59.836Z,5.13
2022-10-17T08:19:02.530Z,4.47
2022-10-17T08:21:08.843Z,4.40
2022-10-17T08:23:11.219Z,4.63
2022-10-17T08:27:21.503Z,4.45
2022-10-17T08:29:23.609Z,4.13
2022-10-17T08:31:25.853Z,4.47
2022-10-17T08:33:28.648Z,5.35
2022-10-17T08:37:33.203Z,4.17
2022-10-17T08:39:35.859Z,4.53
2022-10-17T08:42:02.753Z,3.95
2022-10-17T08:44:25.977Z,4.68
2022-10-17T08:46:39.135Z,5.28
2022-10-17T08:48:47.764Z,4.97
2022-10-17T08:51:04.924Z,6.05
2022-10-17T08:53:16.075Z,5.45
2022-10-17T08:55:33.088Z,5.60
2022-10-17T08:57:35.454Z,5.95
2022-10-17T08:59:38.363Z,5.45
2022-10-17T09:01:50.344Z,6.00
2022-10-17T09:04:12.172Z,5.40
2022-10-17T09:06:37.130Z,5.32
2022-10-17T09:08:54.320Z,5.45
2022-10-17T09:11:03.788Z,6.65
2022-10-17T09:13:53.691Z,6.18
2022-10-17T09:16:13.906Z,6.28
2022-10-17T09:18:25.041Z,7.05
2022-10-17T09:21:00.418Z,6.88
2022-10-17T09:23:16.443Z,5.93
2022-10-17T09:25:21.899Z,6.35
2022-10-17T09:27:37.654Z,7.32
2022-10-17T09:29:43.706Z,7.07
2022-10-17T09:31:53.727Z,7.82
2022-10-17T09:33:57.945Z,6.70
2022-10-17T09:36:05.031Z,8.45
2022-10-17T09:38:13.878Z,6.55
2022-10-17T09:40:32.516Z,8.00
2022-10-17T09:42:36.923Z,7.90
2022-10-17T09:44:49.581Z,6.95
2022-10-17T09:46:55.227Z,7.75
2022-10-17T09:49:05.270Z,7.35
2022-10-17T09:51:25.030Z,7.63
2022-10-17T09:53:34.484Z,7.20
2022-10-17T09:55:48.478Z,7.88
2022-10-17T09:57:59.062Z,7.80
2022-10-17T10:00:05.730Z,8.07
2022-10-17T10:02:22.187Z,7.65
2022-10-17T10:04:30.203Z,8.48
2022-10-17T10:06:37.935Z,7.57
2022-10-17T10:08:55.089Z,7.68
2022-10-17T10:11:05.869Z,7.68
2022-10-17T10:13:20.755Z,8.13
2022-10-17T10:15:39.038Z,7.32
2022-10-17T10:17:43.058Z,7.53
2022-10-17T10:19:51.243Z,7.13
2022-10-17T10:22:01.760Z,8.05
2022-10-17T10:24:13.401Z,7.10
2022-10-17T10:26:32.732Z,6.70
2022-10-17T10:28:37.468Z,7.40
2022-10-17T10:30:42.514Z,7.32
2022-10-17T10:32:50.919Z,7.95
2022-10-17T10:34:55.166Z,6.93
2022-10-17T10:37:23.101Z,7.40
2022-10-17T10:39:47.961Z,7.00
2022-10-17T10:41:50.167Z,8.00
2022-10-17T10:43:54.855Z,7.40
2022-10-17T10:45:57.175Z,6.75
2022-10-17T10:50:20.910Z,6.75
2022-10-17T10:52:42.715Z,7.70
2022-10-17T10:54:54.024Z,7.17
2022-10-17T10:57:03.707Z,7.82
2022-10-17T10:59:08.891Z,7.28
2022-10-17T11:01:29.390Z,8.52
2022-10-17T11:03:46.388Z,7.68
2022-10-17T11:05:55.163Z,7.28
2022-10-17T11:08:30.222Z,7.50
2022-10-17T11:10:44.578Z,6.97
2022-10-17T11:12:55.152Z,7.88
2022-10-17T11:15:09.671Z,7.90
2022-10-17T11:17:23.488Z,7.32
2022-10-17T11:19:37.042Z,7.45
2022-10-17T11:22:26.585Z,7.57
2022-10-17T11:24:48.048Z,6.90
2022-10-17T11:26:56.929Z,7.25
2022-10-17T11:29:06.911Z,8.13
2022-10-17T11:33:28.655Z,8.40
2022-10-17T11:35:46.217Z,7.75
2022-10-17T11:38:25.515Z,8.95
2022-10-17T11:40:32.147Z,8.80
2022-10-17T11:42:45.870Z,8.95
2022-10-17T11:44:52.739Z,8.35
2022-10-17T11:47:02.590Z,9.10
2022-10-17T11:49:38.244Z,9.73
2022-10-17T11:52:04.373Z,8.07
2022-10-17T11:54:18.692Z,9.30
2022-10-17T11:56:32.135Z,8.70
2022-10-17T11:58:47.116Z,9.15
2022-10-17T12:00:55.407Z,8.65
2022-10-17T12:03:23.452Z,8.45
2022-10-17T12:05:34.599Z,9.43
2022-10-17T12:07:47.360Z,9.27
2022-10-17T12:10:04.971Z,9.95
2022-10-17T12:12:07.399Z,10.15
2022-10-17T12:14:41.638Z,9.43
2022-10-17T12:16:45.931Z,9.80
2022-10-17T12:19:10.756Z,11.80
2022-10-17T12:21:13.047Z,8.70
2022-10-17T12:25:34.675Z,9.80
2022-10-17T12:27:50.375Z,10.68
2022-10-17T12:30:06.400Z,11.27
2022-10-17T12:32:16.988Z,10.35
2022-10-17T12:34:22.575Z,9.77
2022-10-17T12:36:30.576Z,11.00
2022-10-17T12:38:33.539Z,11.35
2022-10-17T12:40:35.606Z,9.02
2022-10-17T12:42:47.933Z,10.25
2022-10-17T12:44:51.195Z,10.77
2022-10-17T12:47:37.953Z,10.25
2022-10-17T12:49:53.110Z,10.57
2022-10-17T12:52:27.967Z,10.13
2022-10-17T12:54:46.979Z,10.73
2022-10-17T12:56:57.982Z,11.40
2022-10-17T12:59:18.162Z,10.95
2022-10-17T13:01:33.894Z,10.60
2022-10-17T13:03:44.729Z,10.98
2022-10-17T13:05:54.954Z,11.65
2022-10-17T13:08:00.115Z,13.40
2022-10-17T13:10:05.332Z,12.40
2022-10-17T13:12:15.027Z,11.48
2022-10-17T13:14:20.640Z,11.32
2022-10-17T13:16:34.870Z,11.55
2022-10-17T13:18:37.135Z,10.95
2022-10-17T13:20:41.806Z,11.25
2022-10-17T13:22:48.837Z,9.98
2022-10-17T13:24:52.658Z,10.27
2022-10-17T13:26:55.629Z,10.32
2022-10-17T13:29:18.086Z,11.23
2022-10-17T13:31:35.849Z,11.40
2022-10-17T13:33:40.204Z,12.38
2022-10-17T13:35:59.820Z,11.18
2022-10-17T13:38:07.760Z,11.82
2022-10-17T13:42:49.089Z,10.25
2022-10-17T13:44:52.230Z,11.35
2022-10-17T13:47:00.049Z,10.30
2022-10-17T13:49:23.233Z,11.38
2022-10-17T13:51:34.522Z,11.52
2022-10-17T13:53:44.547Z,11.63
2022-10-17T13:56:34.461Z,11.18
2022-10-17T13:58:43.039Z,11.82
2022-10-17T14:00:46.035Z,11.20
2022-10-17T14:02:48.583Z,11.65
2022-10-17T14:08:09.250Z,12.45
2022-10-17T14:10:17.486Z,11.27
2022-10-17T14:12:25.493Z,10.73
2022-10-17T14:14:32.129Z,11.80
2022-10-17T14:16:46.961Z,11.70
2022-10-17T14:18:50.921Z,12.32
2022-10-17T14:23:37.224Z,13.05
2022-10-17T14:25:42.389Z,12.55
2022-10-17T14:28:02.392Z,12.40
2022-10-17T14:30:51.606Z,12.73
2022-10-17T14:32:48.075Z,12.63
2022-10-17T14:35:05.629Z,12.98
2022-10-17T14:37:43.982Z,13.38
2022-10-17T14:39:50.730Z,12.20
2022-10-17T14:41:53.761Z,13.13
2022-10-17T14:44:00.314Z,12.63
2022-10-17T14:46:03.425Z,12.15
2022-10-17T14:48:17.603Z,13.23
2022-10-17T14:50:28.421Z,13.18
2022-10-17T14:52:32.654Z,13.10
2022-10-17T14:54:36.171Z,13.40
2022-10-17T14:56:50.798Z,13.00
2022-10-17T14:58:53.226Z,13.25
2022-10-17T15:00:59.119Z,12.98
2022-10-17T15:03:01.402Z,13.07
2022-10-17T15:05:08.360Z,13.85
2022-10-17T15:07:16.714Z,13.25
2022-10-17T15:09:19.170Z,13.70
2022-10-17T15:13:28.302Z,13.30
2022-10-17T15:15:32.617Z,13.82
2022-10-17T15:17:35.399Z,12.68
2022-10-17T15:19:37.905Z,13.90
2022-10-17T15:21:47.540Z,14.95
2022-10-17T15:23:53.214Z,15.85
2022-10-17T15:25:55.899Z,14.18
2022-10-17T15:30:00.673Z,13.30
2022-10-17T15:34:05.374Z,14.20
2022-10-17T15:38:28.840Z,13.98
2022-10-17T15:40:31.218Z,14.52
2022-10-17T15:44:36.844Z,13.13
2022-10-17T15:46:41.256Z,12.07
2022-10-17T15:48:46.077Z,12.63
2022-10-17T15:50:48.417Z,12.18
2022-10-17T15:52:51.241Z,12.00
2022-10-17T15:54:54.568Z,13.25
2022-10-17T15:56:59.804Z,11.55
2022-10-17T15:59:25.712Z,13.57
2022-10-17T16:01:31.273Z,11.85
2022-10-17T16:03:34.286Z,11.40
2022-10-17T16:05:36.623Z,11.05
2022-10-17T16:07:38.846Z,11.70
2022-10-17T16:09:41.542Z,12.40
2022-10-17T16:11:44.813Z,12.23
2022-10-17T16:13:53.853Z,11.70
2022-10-17T16:15:59.099Z,12.02
2022-10-17T16:18:04.242Z,11.77
2022-10-17T16:20:13.718Z,11.65
2022-10-17T16:22:33.574Z,12.02
2022-10-17T16:24:37.042Z,11.43
2022-10-17T16:26:43.010Z,11.88
2022-10-17T16:28:46.516Z,10.63
2022-10-17T16:30:49.485Z,12.38
2022-10-17T16:32:52.449Z,11.25
2022-10-17T16:34:58.398Z,11.48
2022-10-17T16:37:00.769Z,12.25
2022-10-17T16:41:05.890Z,11.38
2022-10-17T16:43:12.614Z,11.52
2022-10-17T16:45:25.560Z,11.63
2022-10-17T16:47:33.764Z,10.75
2022-10-17T16:49:39.267Z,12.48
2022-10-17T16:51:47.966Z,11.15
2022-10-17T16:53:53.094Z,10.95
2022-10-17T16:56:03.390Z,12.18
2022-10-17T16:58:05.750Z,11.32
2022-10-17T17:00:08.579Z,12.20
2022-10-17T17:02:12.169Z,12.43
2022-10-17T17:04:15.466Z,12.27
2022-10-17T17:06:26.774Z,10.95
2022-10-17T17:08:29.134Z,10.98
2022-10-17T17:12:36.103Z,11.77
2022-10-17T17:14:38.859Z,11.27
2022-10-17T17:16:43.774Z,11.32
2022-10-17T17:20:49.033Z,10.95
2022-10-17T17:22:52.537Z,11.13
2022-10-17T17:24:54.660Z,12.27
2022-10-17T17:26:57.593Z,11.15
2022-10-17T17:29:02.734Z,11.90
2022-10-17T17:31:12.346Z,10.63
2022-10-17T17:33:15.239Z,10.73
2022-10-17T17:35:19.358Z,11.45
2022-10-17T17:37:21.513Z,11.05
2022-10-17T17:39:24.730Z,11.25
2022-10-17T17:41:31.025Z,11.73
2022-10-17T17:43:33.745Z,10.98
2022-10-17T17:45:36.391Z,12.82
2022-10-17T17:47:38.550Z,11.07
2022-10-17T17:49:40.743Z,11.30
2022-10-17T17:51:48.249Z,10.77
2022-10-17T17:53:53.476Z,10.98
2022-10-17T17:56:07.952Z,11.07
2022-10-17T17:58:12.593Z,11.45
2022-10-17T18:00:15.420Z,11.93
2022-10-17T18:02:18.814Z,11.80
2022-10-17T18:04:21.566Z,11.15
2022-10-17T18:06:27.419Z,11.50
2022-10-17T18:08:32.898Z,12.55
2022-10-17T18:10:35.889Z,11.02
2022-10-17T18:12:38.364Z,10.50
2022-10-17T18:14:50.008Z,13.02
2022-10-17T18:16:52.276Z,12.70
2022-10-17T18:18:54.578Z,12.00
2022-10-17T18:23:01.982Z,12.07
2022-10-17T18:25:07.077Z,11.68
2022-10-17T18:27:09.666Z,11.57
2022-10-17T18:29:12.964Z,12.15
2022-10-17T18:31:24.388Z,12.05
2022-10-17T18:33:26.712Z,12.30
2022-10-17T18:35:31.637Z,12.00
2022-10-17T18:37:33.889Z,12.20
2022-10-17T18:39:36.212Z,12.35
2022-10-17T18:41:38.310Z,12.88
2022-10-17T18:43:42.179Z,13.20
2022-10-17T18:45:44.460Z,12.50
2022-10-17T18:47:47.518Z,12.82
2022-10-17T18:49:49.747Z,11.50
2022-10-17T18:51:52.177Z,12.10
2022-10-17T18:53:58.852Z,11.13
2022-10-17T18:56:03.453Z,10.57
2022-10-17T18:58:05.699Z,11.95
2022-10-17T19:00:08.566Z,10.98
2022-10-17T19:02:13.301Z,12.00
2022-10-17T19:04:15.879Z,12.05
2022-10-17T19:06:21.834Z,12.75
2022-10-17T19:08:26.901Z,12.50
2022-10-17T19:10:29.211Z,13.02
2022-10-17T19:12:31.883Z,12.32
2022-10-17T19:14:40.014Z,12.30
2022-10-17T19:16:45.730Z,11.43
2022-10-17T19:18:52.489Z,13.10
2022-10-17T19:20:54.869Z,13.77
2022-10-17T19:22:59.754Z,11.98
2022-10-17T19:25:01.920Z,13.30
2022-10-17T19:27:06.988Z,13.35
2022-10-17T19:29:12.685Z,12.40
2022-10-17T19:31:20.800Z,13.48
2022-10-17T19:33:31.556Z,13.45
2022-10-17T19:35:34.974Z,13.90
2022-10-17T19:37:37.893Z,13.73
2022-10-17T19:39:40.604Z,13.82
2022-10-17T19:41:44.973Z,14.50
2022-10-17T19:43:49.993Z,14.82
2022-10-17T19:45:57.832Z,15.10
2022-10-17T19:48:01.557Z,14.38
2022-10-17T19:50:04.824Z,14.98
2022-10-17T19:52:07.291Z,15.85
2022-10-17T19:54:10.087Z,13.93
2022-10-17T19:56:18.643Z,13.93
2022-10-17T19:58:20.857Z,15.27
2022-10-17T20:00:23.161Z,14.85
2022-10-17T20:04:27.717Z,15.10
2022-10-17T20:08:32.234Z,15.45
2022-10-17T20:14:41.105Z,15.20
2022-10-17T20:16:50.279Z,15.68
2022-10-17T20:18:54.859Z,15.82
2022-10-17T20:21:06.596Z,15.95
2022-10-17T20:23:08.706Z,16.13
2022-10-17T20:25:11.017Z,17.15
2022-10-17T20:27:17.228Z,16.48
2022-10-17T20:29:23.322Z,16.98
2022-10-17T20:31:25.908Z,20.65
2022-10-17T20:33:31.833Z,18.92
2022-10-17T20:35:34.304Z,17.10
2022-10-17T20:37:41.705Z,17.25
2022-10-17T20:39:51.812Z,18.00
2022-10-17T20:41:58.101Z,17.67
2022-10-17T20:44:00.301Z,17.58
2022-10-17T20:46:15.540Z,16.92
2022-10-17T20:48:25.064Z,16.95
2022-10-17T20:50:27.121Z,16.58
2022-10-17T20:52:29.204Z,15.43
2022-10-17T20:54:31.566Z,15.18
2022-10-17T20:56:34.932Z,15.00
2022-10-17T20:58:37.435Z,14.52
2022-10-17T21:02:42.337Z,14.10
2022-10-17T21:04:47.044Z,14.50
2022-10-17T21:06:51.469Z,12.85
2022-10-17T21:08:55.252Z,13.93
2022-10-17T21:11:08.588Z,14.20
2022-10-17T21:13:10.802Z,14.07
2022-10-17T21:15:19.071Z,14.07
2022-10-17T21:17:21.765Z,13.30
2022-10-17T21:19:23.938Z,14.27
2022-10-17T21:21:34.807Z,15.05
2022-10-17T21:23:37.532Z,14.40
2022-10-17T21:25:40.794Z,14.15
2022-10-17T21:27:45.959Z,14.80
2022-10-17T21:29:48.946Z,15.13
2022-10-17T21:31:51.886Z,14.85
2022-10-17T21:33:56.900Z,14.85
2022-10-17T21:35:59.030Z,15.05
2022-10-17T21:38:01.117Z,14.77
2022-10-17T21:44:13.667Z,17.13
2022-10-17T21:46:18.189Z,16.65
2022-10-17T21:48:20.343Z,16.85
2022-10-17T21:50:22.493Z,17.05
2022-10-17T21:52:24.633Z,16.27
2022-10-17T21:54:26.806Z,16.98
2022-10-17T21:56:30.822Z,16.42
2022-10-17T21:58:35.942Z,14.35
2022-10-17T22:00:38.066Z,15.85
2022-10-17T22:02:40.195Z,17.35
2022-10-17T22:04:42.213Z,16.45
2022-10-17T22:06:46.387Z,15.35
2022-10-17T22:08:48.994Z,15.60
2022-10-17T22:10:51.124Z,15.05
2022-10-17T22:12:53.247Z,14.02
2022-10-17T22:14:55.358Z,15.25
2022-10-17T22:16:57.529Z,14.95
2022-10-17T22:19:04.934Z,15.20
2022-10-17T22:21:11.772Z,15.77
2022-10-17T22:23:14.011Z,15.13
2022-10-17T22:25:16.279Z,16.05
2022-10-17T22:27:18.404Z,15.20
2022-10-17T22:29:21.267Z,15.38
2022-10-17T22:31:23.817Z,15.05
2022-10-17T22:33:26.093Z,15.93
2022-10-17T22:37:30.605Z,16.15
2022-10-17T22:39:32.877Z,17.10
2022-10-17T22:41:34.957Z,16.20
2022-10-17T22:43:37.082Z,16.38
2022-10-17T22:45:40.293Z,16.65
2022-10-17T22:47:42.628Z,16.05
2022-10-17T22:51:47.229Z,15.25
2022-10-17T22:53:49.748Z,17.52
2022-10-17T22:55:58.898Z,16.85
2022-10-17T22:58:01.037Z,16.05
2022-10-17T23:00:04.969Z,16.38
2022-10-17T23:02:07.290Z,16.38
2022-10-17T23:04:09.451Z,16.20
2022-10-17T23:06:12.330Z,15.55
2022-10-17T23:08:15.588Z,16.67
2022-10-17T23:10:18.191Z,15.35
2022-10-17T23:12:20.290Z,14.90
2022-10-17T23:14:22.415Z,14.60
2022-10-17T23:16:27.223Z,13.95
2022-10-17T23:20:32.023Z,14.38
2022-10-17T23:22:34.053Z,16.20
2022-10-17T23:24:36.871Z,14.77
2022-10-17T23:26:39.244Z,13.48
2022-10-17T23:28:42.692Z,14.48
2022-10-17T23:30:45.061Z,14.75
2022-10-17T23:32:47.469Z,14.48
2022-10-17T23:34:49.760Z,14.75
2022-10-17T23:36:54.719Z,15.02
2022-10-17T23:38:58.610Z,13.95
2022-10-17T23:41:03.814Z,14.88
2022-10-17T23:43:06.666Z,12.77
2022-10-17T23:45:09.633Z,14.35
2022-10-17T23:47:11.696Z,14.32
2022-10-17T23:49:13.844Z,15.00
2022-10-17T23:51:16.152Z,14.65
2022-10-17T23:55:20.289Z,14.57
2022-10-17T23:57:22.597Z,15.73
2022-10-17T23:59:25.051Z,14.07
